createdAt,value
2017-09-16T00:01:10.985Z,21.52
2017-09-16T00:03:38.765Z,22.40
2017-09-16T00:06:06.539Z,18.73
2017-09-16T00:08:34.339Z,20.62
2017-09-16T00:11:03.017Z,18.25
2017-09-16T00:13:31.610Z,21.85
2017-09-16T00:16:00.152Z,20.08
2017-09-16T00:18:27.925Z,17.73
2017-09-16T00:20:55.745Z,18.23
2017-09-16T00:23:23.525Z,18.20
2017-09-16T00:25:51.651Z,17.40
2017-09-16T00:28:19.415Z,18.27
2017-09-16T00:30:47.200Z,18.45
2017-09-16T00:33:15.773Z,19.37
2017-09-16T00:35:43.544Z,18.40
2017-09-16T00:38:11.370Z,24.17
2017-09-16T00:40:39.925Z,18.65
2017-09-16T00:43:07.766Z,18.98
2017-09-16T00:45:35.578Z,18.70
2017-09-16T00:48:04.125Z,16.60
2017-09-16T00:50:32.013Z,22.05
2017-09-16T00:53:00.576Z,17.08
2017-09-16T00:55:28.376Z,19.02
2017-09-16T00:57:56.205Z,16.92
2017-09-16T01:00:23.991Z,17.45
2017-09-16T01:02:52.605Z,17.85
2017-09-16T01:05:20.380Z,20.27
2017-09-16T01:07:48.158Z,16.58
2017-09-16T01:10:15.983Z,19.92
2017-09-16T01:12:43.773Z,16.85
2017-09-16T01:15:12.373Z,18.45
2017-09-16T01:17:40.155Z,18.27
2017-09-16T01:20:08.721Z,18.60
2017-09-16T01:22:36.533Z,17.92
2017-09-16T01:25:04.337Z,18.30
2017-09-16T01:27:32.180Z,18.65
2017-09-16T01:29:59.973Z,17.23
2017-09-16T01:32:27.753Z,17.17
2017-09-16T01:34:56.354Z,17.58
2017-09-16T01:37:24.153Z,18.73
2017-09-16T01:39:51.983Z,18.27
2017-09-16T01:42:19.753Z,22.37
2017-09-16T01:44:47.512Z,18.98
2017-09-16T01:47:15.298Z,19.23
2017-09-16T01:49:43.067Z,20.23
2017-09-16T01:52:10.886Z,22.08
2017-09-16T01:54:38.637Z,19.30
2017-09-16T01:57:07.166Z,21.75
2017-09-16T01:59:35.009Z,21.42
2017-09-16T02:02:02.775Z,20.58
2017-09-16T02:04:30.593Z,18.65
2017-09-16T02:06:59.123Z,20.52
2017-09-16T02:09:26.887Z,21.33
2017-09-16T02:11:54.682Z,23.27
2017-09-16T02:14:22.437Z,22.55
2017-09-16T02:16:50.273Z,20.37
2017-09-16T02:19:18.065Z,21.70
2017-09-16T02:21:45.844Z,25.98
2017-09-16T02:24:14.429Z,25.75
2017-09-16T02:26:42.970Z,24.65
2017-09-16T02:29:10.800Z,27.67
2017-09-16T02:31:38.569Z,25.88
2017-09-16T02:34:06.357Z,24.75
2017-09-16T02:36:34.156Z,24.77
2017-09-16T02:39:02.685Z,23.83
2017-09-16T02:41:30.525Z,25.42
2017-09-16T02:43:58.283Z,27.65
2017-09-16T02:46:26.052Z,26.10
2017-09-16T02:48:53.838Z,24.00
2017-09-16T02:51:21.620Z,23.02
2017-09-16T02:53:49.442Z,23.42
2017-09-16T02:56:17.211Z,26.30
2017-09-16T02:58:44.977Z,22.10
2017-09-16T03:01:12.775Z,24.98
2017-09-16T03:03:40.542Z,25.40
2017-09-16T03:06:08.361Z,23.17
2017-09-16T03:08:36.125Z,20.85
2017-09-16T03:11:03.879Z,24.37
2017-09-16T03:13:31.673Z,28.55
2017-09-16T03:15:59.439Z,23.55
2017-09-16T03:18:27.278Z,22.10
2017-09-16T03:20:55.054Z,21.40
2017-09-16T03:23:22.832Z,23.52
2017-09-16T03:25:50.639Z,19.58
2017-09-16T03:28:18.413Z,21.30
2017-09-16T03:30:46.235Z,19.58
2017-09-16T03:33:14.779Z,20.17
2017-09-16T03:35:42.540Z,21.92
2017-09-16T03:38:10.326Z,18.37
2017-09-16T03:40:38.089Z,18.73
2017-09-16T03:43:05.907Z,17.98
2017-09-16T03:45:33.668Z,18.25
2017-09-16T03:48:01.427Z,19.30
2017-09-16T03:50:29.221Z,21.12
2017-09-16T03:52:56.996Z,16.12
2017-09-16T03:55:24.807Z,19.05
2017-09-16T03:57:52.568Z,22.67
2017-09-16T04:00:20.377Z,20.08
2017-09-16T04:02:48.200Z,19.35
2017-09-16T04:05:15.967Z,17.70
2017-09-16T04:07:43.773Z,19.27
2017-09-16T04:10:11.537Z,16.98
2017-09-16T04:12:39.308Z,19.17
2017-09-16T04:15:07.892Z,20.17
2017-09-16T04:17:36.447Z,16.58
2017-09-16T04:20:04.291Z,21.40
2017-09-16T04:22:32.075Z,19.30
2017-09-16T04:24:59.844Z,16.37
2017-09-16T04:27:27.638Z,18.00
2017-09-16T04:29:55.390Z,17.33
2017-09-16T04:32:23.961Z,14.87
2017-09-16T04:34:52.504Z,15.75
2017-09-16T04:37:20.271Z,15.18
2017-09-16T04:39:48.073Z,17.87
2017-09-16T04:42:16.626Z,16.58
2017-09-16T04:44:44.444Z,20.90
2017-09-16T04:47:12.201Z,16.58
2017-09-16T04:49:39.979Z,15.07
2017-09-16T04:52:07.787Z,15.20
2017-09-16T04:54:36.342Z,16.92
2017-09-16T04:57:04.175Z,16.60
2017-09-16T04:59:31.939Z,15.20
2017-09-16T05:01:59.714Z,15.32
2017-09-16T05:04:27.523Z,14.85
2017-09-16T05:06:56.054Z,14.15
2017-09-16T05:09:23.883Z,12.77
2017-09-16T05:11:51.693Z,12.40
2017-09-16T05:14:19.454Z,13.15
2017-09-16T05:16:47.245Z,16.58
2017-09-16T05:19:15.018Z,13.62
2017-09-16T05:21:42.835Z,14.35
2017-09-16T05:24:10.606Z,12.95
2017-09-16T05:26:38.375Z,13.18
2017-09-16T05:29:06.163Z,12.88
2017-09-16T05:31:34.715Z,11.82
2017-09-16T05:34:03.305Z,9.48
2017-09-16T05:36:31.069Z,12.23
2017-09-16T05:38:58.823Z,11.15
2017-09-16T05:41:26.617Z,13.02
2017-09-16T05:43:55.141Z,9.88
2017-09-16T05:46:22.951Z,14.27
2017-09-16T05:48:51.473Z,11.05
2017-09-16T05:51:19.247Z,10.52
2017-09-16T05:53:47.043Z,14.20
2017-09-16T05:56:14.816Z,10.27
2017-09-16T05:58:43.397Z,10.63
2017-09-16T06:01:11.929Z,11.27
2017-09-16T06:03:39.687Z,16.55
2017-09-16T06:06:07.493Z,10.73
2017-09-16T06:08:35.250Z,10.90
2017-09-16T06:11:03.113Z,10.65
2017-09-16T06:13:31.670Z,11.18
2017-09-16T06:15:59.432Z,11.02
2017-09-16T06:18:27.225Z,10.93
2017-09-16T06:20:55.778Z,12.73
2017-09-16T06:23:23.626Z,12.85
2017-09-16T06:25:51.385Z,11.68
2017-09-16T06:28:19.184Z,11.75
2017-09-16T06:30:46.986Z,13.73
2017-09-16T06:33:14.757Z,14.87
2017-09-16T06:35:43.352Z,12.55
2017-09-16T06:38:11.138Z,11.48
2017-09-16T06:40:38.905Z,11.20
2017-09-16T06:43:06.713Z,10.00
2017-09-16T06:45:34.470Z,10.18
2017-09-16T06:48:03.087Z,12.32
2017-09-16T06:50:30.842Z,9.65
2017-09-16T06:52:58.629Z,10.45
2017-09-16T06:55:26.413Z,8.05
2017-09-16T06:57:54.172Z,8.07
2017-09-16T07:00:22.022Z,7.68
2017-09-16T07:02:49.776Z,7.20
2017-09-16T07:05:17.530Z,6.87
2017-09-16T07:07:45.311Z,7.07
2017-09-16T07:10:13.070Z,8.88
2017-09-16T07:12:40.878Z,7.55
2017-09-16T07:15:08.640Z,6.35
2017-09-16T07:17:36.400Z,5.82
2017-09-16T07:20:04.186Z,5.10
2017-09-16T07:22:31.980Z,4.30
2017-09-16T07:24:59.778Z,7.07
2017-09-16T07:27:28.300Z,4.60
2017-09-16T07:29:56.049Z,5.72
2017-09-16T07:32:23.839Z,4.18
2017-09-16T07:34:51.611Z,7.60
2017-09-16T07:37:19.426Z,3.12
2017-09-16T07:39:47.174Z,6.25
2017-09-16T07:42:14.920Z,5.80
2017-09-16T07:44:43.470Z,6.05
2017-09-16T07:47:11.220Z,6.62
2017-09-16T07:49:39.043Z,8.68
2017-09-16T07:52:06.801Z,5.43
2017-09-16T07:54:35.478Z,7.80
2017-09-16T07:57:04.046Z,6.57
2017-09-16T07:59:32.580Z,8.00
2017-09-16T08:02:00.501Z,10.63
2017-09-16T08:04:29.028Z,5.78
2017-09-16T08:06:57.437Z,8.15
2017-09-16T08:09:25.234Z,6.07
2017-09-16T08:11:52.994Z,4.90
2017-09-16T08:14:20.793Z,5.32
2017-09-16T08:16:48.553Z,4.95
2017-09-16T08:19:16.346Z,7.15
2017-09-16T08:21:44.105Z,10.40
2017-09-16T08:24:11.918Z,5.35
2017-09-16T08:26:39.693Z,6.15
2017-09-16T08:29:07.444Z,5.90
2017-09-16T08:31:35.246Z,9.82
2017-09-16T08:34:02.989Z,9.35
2017-09-16T08:36:30.808Z,10.52
2017-09-16T08:38:58.575Z,13.32
2017-09-16T08:41:26.336Z,10.15
2017-09-16T08:43:54.166Z,12.73
2017-09-16T08:46:22.699Z,12.05
2017-09-16T08:48:50.512Z,9.20
2017-09-16T08:51:19.045Z,9.35
2017-09-16T08:53:47.580Z,9.88
2017-09-16T08:56:16.146Z,12.73
2017-09-16T08:58:43.904Z,10.07
2017-09-16T09:01:11.738Z,7.68
2017-09-16T09:03:39.494Z,10.70
2017-09-16T09:06:07.340Z,10.00
2017-09-16T09:08:35.129Z,8.70
2017-09-16T09:11:02.895Z,9.63
2017-09-16T09:13:30.707Z,8.07
2017-09-16T09:15:58.484Z,8.95
2017-09-16T09:18:26.244Z,8.30
2017-09-16T09:20:54.038Z,7.68
2017-09-16T09:23:21.818Z,7.87
2017-09-16T09:25:49.658Z,7.32
2017-09-16T09:28:17.417Z,8.40
2017-09-16T09:30:45.201Z,8.23
2017-09-16T09:33:13.052Z,8.32
2017-09-16T09:35:40.819Z,9.68
2017-09-16T09:38:08.643Z,8.20
2017-09-16T09:40:36.513Z,8.20
2017-09-16T09:43:04.275Z,8.00
2017-09-16T09:45:32.071Z,8.45
2017-09-16T09:47:59.843Z,9.82
2017-09-16T09:50:27.661Z,12.75
2017-09-16T09:52:55.441Z,10.68
2017-09-16T09:55:25.105Z,11.80
2017-09-16T09:57:53.219Z,13.25
2017-09-16T10:00:20.994Z,14.38
2017-09-16T10:02:48.906Z,16.52
2017-09-16T10:05:16.958Z,16.37
2017-09-16T10:07:44.743Z,18.08
2017-09-16T10:10:12.567Z,18.52
2017-09-16T10:12:40.962Z,22.55
2017-09-16T10:15:09.824Z,19.50
2017-09-16T10:17:37.621Z,14.32
2017-09-16T10:20:06.152Z,13.00
2017-09-16T10:22:33.954Z,13.82
2017-09-16T10:25:02.484Z,11.85
2017-09-16T10:27:30.312Z,11.85
2017-09-16T10:29:58.838Z,14.50
2017-09-16T10:32:26.609Z,12.20
2017-09-16T10:34:54.440Z,11.50
2017-09-16T10:37:22.206Z,10.00
2017-09-16T10:39:50.010Z,9.02
2017-09-16T10:42:17.775Z,9.30
2017-09-16T10:44:45.558Z,9.43
2017-09-16T10:47:14.134Z,9.55
2017-09-16T10:49:42.659Z,9.85
2017-09-16T10:52:10.467Z,7.62
2017-09-16T10:54:39.844Z,4.95
2017-09-16T10:57:07.620Z,4.85
2017-09-16T10:59:36.205Z,6.85
2017-09-16T11:02:04.928Z,4.72
2017-09-16T11:04:32.738Z,5.62
2017-09-16T11:07:00.498Z,4.65
2017-09-16T11:09:28.265Z,5.50
2017-09-16T11:11:56.064Z,9.98
2017-09-16T11:14:23.821Z,6.10
2017-09-16T11:16:52.398Z,5.18
2017-09-16T11:19:20.918Z,5.93
2017-09-16T11:21:49.458Z,4.10
2017-09-16T11:24:18.024Z,7.32
2017-09-16T11:26:46.588Z,5.07
2017-09-16T11:29:14.406Z,6.18
2017-09-16T11:31:42.165Z,5.75
2017-09-16T11:34:09.929Z,7.53
2017-09-16T11:36:37.747Z,7.07
2017-09-16T11:39:07.233Z,5.18
2017-09-16T11:41:35.032Z,10.25
2017-09-16T11:44:03.565Z,6.28
2017-09-16T11:46:31.327Z,7.07
2017-09-16T11:48:59.120Z,6.55
2017-09-16T11:51:27.653Z,6.45
2017-09-16T11:53:55.450Z,6.53
2017-09-16T11:56:23.211Z,8.65
2017-09-16T11:58:50.987Z,6.90
2017-09-16T12:01:19.553Z,6.97
2017-09-16T12:03:47.326Z,7.55
2017-09-16T12:06:15.924Z,6.47
2017-09-16T12:08:44.445Z,6.25
2017-09-16T12:11:12.263Z,6.03
2017-09-16T12:13:40.062Z,5.43
2017-09-16T12:16:07.861Z,6.20
2017-09-16T12:18:35.683Z,11.35
2017-09-16T12:21:03.450Z,8.48
2017-09-16T12:23:31.211Z,9.38
2017-09-16T12:25:59.001Z,6.70
2017-09-16T12:28:26.761Z,7.35
2017-09-16T12:30:54.581Z,9.13
2017-09-16T12:33:22.340Z,10.32
2017-09-16T12:35:50.151Z,8.27
2017-09-16T12:38:17.946Z,7.87
2017-09-16T12:40:46.674Z,8.68
2017-09-16T12:43:14.519Z,11.05
2017-09-16T12:45:42.278Z,9.20
2017-09-16T12:48:10.038Z,12.80
2017-09-16T12:50:37.833Z,9.73
2017-09-16T12:53:05.608Z,11.80
2017-09-16T12:55:33.428Z,12.65
2017-09-16T12:58:01.196Z,10.48
2017-09-16T13:00:28.961Z,11.77
2017-09-16T13:02:56.766Z,13.68
2017-09-16T13:05:24.539Z,13.18
2017-09-16T13:07:52.378Z,11.45
2017-09-16T13:10:20.162Z,13.23
2017-09-16T13:12:47.933Z,15.10
2017-09-16T13:15:16.534Z,13.70
2017-09-16T13:17:44.300Z,15.25
2017-09-16T13:20:12.129Z,13.70
2017-09-16T13:22:39.896Z,15.88
2017-09-16T13:25:08.442Z,16.30
2017-09-16T13:27:36.274Z,17.20
2017-09-16T13:30:04.062Z,17.83
2017-09-16T13:32:31.895Z,17.52
2017-09-16T13:34:59.752Z,19.87
2017-09-16T13:37:27.519Z,14.13
2017-09-16T13:39:55.341Z,17.62
2017-09-16T13:42:23.115Z,15.35
2017-09-16T13:44:51.712Z,15.00
2017-09-16T13:47:19.487Z,16.60
2017-09-16T13:49:47.258Z,14.45
2017-09-16T13:52:15.046Z,14.32
2017-09-16T13:54:42.809Z,13.80
2017-09-16T13:57:10.642Z,13.55
2017-09-16T13:59:38.495Z,13.25
2017-09-16T14:02:06.268Z,11.20
2017-09-16T14:04:34.058Z,10.10
2017-09-16T14:07:01.830Z,13.02
2017-09-16T14:09:29.701Z,12.48
2017-09-16T14:11:57.466Z,11.57
2017-09-16T14:14:25.223Z,9.98
2017-09-16T14:16:53.089Z,11.73
2017-09-16T14:19:20.846Z,6.80
2017-09-16T14:21:48.662Z,7.53
2017-09-16T14:24:16.428Z,8.93
2017-09-16T14:26:44.187Z,8.00
2017-09-16T14:29:11.970Z,9.10
2017-09-16T14:31:39.730Z,10.38
2017-09-16T14:34:07.558Z,11.73
2017-09-16T14:36:36.078Z,9.38
2017-09-16T14:39:03.898Z,11.10
2017-09-16T14:41:32.445Z,8.55
2017-09-16T14:44:00.233Z,10.75
2017-09-16T14:46:28.822Z,8.02
2017-09-16T14:48:57.350Z,9.15
2017-09-16T14:51:25.105Z,7.00
2017-09-16T14:53:52.905Z,7.78
2017-09-16T14:56:21.436Z,11.65
2017-09-16T14:58:49.278Z,8.15
2017-09-16T15:01:17.038Z,8.55
2017-09-16T15:03:44.812Z,7.43
2017-09-16T15:06:12.595Z,6.72
2017-09-16T15:08:40.357Z,7.00
2017-09-16T15:11:08.199Z,7.87
2017-09-16T15:13:35.966Z,11.15
2017-09-16T15:16:03.743Z,10.05
2017-09-16T15:18:31.529Z,9.13
2017-09-16T15:20:59.345Z,8.15
2017-09-16T15:23:27.175Z,8.32
2017-09-16T15:25:55.712Z,10.93
2017-09-16T15:28:23.478Z,8.15
2017-09-16T15:30:51.266Z,10.48
2017-09-16T15:33:19.068Z,11.18
2017-09-16T15:35:46.883Z,7.32
2017-09-16T15:38:14.662Z,9.38
2017-09-16T15:40:42.458Z,7.32
2017-09-16T15:43:10.270Z,9.02
2017-09-16T15:45:38.026Z,11.38
2017-09-16T15:48:05.846Z,8.50
2017-09-16T15:50:33.609Z,6.72
2017-09-16T15:53:01.379Z,6.80
2017-09-16T15:55:29.171Z,8.57
2017-09-16T15:57:56.928Z,8.68
2017-09-16T16:00:24.737Z,8.70
2017-09-16T16:02:52.524Z,8.60
2017-09-16T16:05:21.047Z,8.70
2017-09-16T16:07:48.855Z,10.10
2017-09-16T16:10:16.621Z,8.30
2017-09-16T16:12:44.473Z,9.25
2017-09-16T16:15:12.263Z,7.90
2017-09-16T16:17:40.034Z,9.60
2017-09-16T16:20:07.825Z,9.02
2017-09-16T16:22:35.603Z,9.57
2017-09-16T16:25:16.290Z,9.70
2017-09-16T16:27:53.122Z,8.70
2017-09-16T16:30:32.855Z,10.00
2017-09-16T16:33:00.617Z,10.10
2017-09-16T16:35:28.485Z,10.10
2017-09-16T16:37:56.266Z,11.40
2017-09-16T16:40:24.822Z,11.88
2017-09-16T16:42:52.624Z,12.75
2017-09-16T16:45:20.401Z,11.43
2017-09-16T16:47:48.222Z,13.18
2017-09-16T16:50:15.982Z,14.07
2017-09-16T16:52:43.763Z,12.23
2017-09-16T16:55:12.335Z,13.90
2017-09-16T16:57:40.111Z,13.45
2017-09-16T17:00:08.746Z,13.15
2017-09-16T17:02:36.552Z,11.32
2017-09-16T17:05:05.083Z,11.00
2017-09-16T17:07:32.871Z,10.20
2017-09-16T17:10:00.627Z,19.50
2017-09-16T17:12:28.590Z,25.08
2017-09-16T17:14:56.369Z,26.20
2017-09-16T17:17:24.153Z,11.98
2017-09-16T17:19:52.711Z,10.98
2017-09-16T17:22:20.476Z,9.27
2017-09-16T17:24:49.092Z,10.77
2017-09-16T17:27:16.872Z,14.48
2017-09-16T17:29:44.661Z,16.27
2017-09-16T17:32:12.450Z,9.93
2017-09-16T17:34:40.985Z,10.40
2017-09-16T17:37:08.881Z,11.63
2017-09-16T17:39:36.669Z,11.82
2017-09-16T17:42:04.444Z,11.30
2017-09-16T17:44:32.234Z,10.13
2017-09-16T17:46:59.993Z,13.13
2017-09-16T17:49:27.818Z,16.10
2017-09-16T17:51:56.351Z,15.02
2017-09-16T17:54:24.117Z,16.33
2017-09-16T17:56:51.906Z,16.17
2017-09-16T17:59:20.433Z,16.95
2017-09-16T18:01:49.032Z,20.35
2017-09-16T18:04:16.818Z,22.77
2017-09-16T18:06:44.588Z,20.23
2017-09-16T18:09:12.384Z,24.17
2017-09-16T18:11:40.168Z,23.90
2017-09-16T18:14:08.011Z,25.15
2017-09-16T18:16:35.781Z,25.37
2017-09-16T18:19:03.555Z,27.37
2017-09-16T18:21:32.484Z,27.17
2017-09-16T18:24:00.271Z,29.65
2017-09-16T18:26:29.073Z,29.23
2017-09-16T18:28:57.156Z,33.00
2017-09-16T18:31:24.922Z,31.45
2017-09-16T18:33:52.733Z,30.27
2017-09-16T18:36:21.275Z,29.52
2017-09-16T18:38:49.259Z,29.35
2017-09-16T18:41:17.036Z,28.65
2017-09-16T18:43:44.803Z,28.80
2017-09-16T18:46:13.402Z,27.73
2017-09-16T18:48:41.175Z,23.67
2017-09-16T18:51:09.144Z,28.95
2017-09-16T18:53:36.910Z,23.85
2017-09-16T18:56:04.673Z,24.00
2017-09-16T18:58:32.472Z,25.50
2017-09-16T19:01:00.245Z,22.60
2017-09-16T19:03:28.077Z,29.83
2017-09-16T19:05:55.835Z,22.80
2017-09-16T19:08:23.617Z,25.48
2017-09-16T19:10:51.423Z,25.05
2017-09-16T19:13:19.198Z,28.33
2017-09-16T19:15:47.022Z,23.70
2017-09-16T19:18:14.796Z,25.45
2017-09-16T19:20:43.351Z,24.75
2017-09-16T19:23:11.147Z,23.77
2017-09-16T19:25:39.679Z,27.27
2017-09-16T19:28:19.076Z,26.30
2017-09-16T19:30:57.914Z,28.35
2017-09-16T19:33:37.005Z,26.25
2017-09-16T19:36:16.179Z,25.17
2017-09-16T19:38:54.830Z,29.83
2017-09-16T19:41:31.699Z,27.25
2017-09-16T19:44:12.171Z,30.88
2017-09-16T19:46:50.445Z,26.33
2017-09-16T19:49:18.322Z,26.60
2017-09-16T19:51:46.100Z,27.02
2017-09-16T19:54:13.873Z,28.12
2017-09-16T19:56:42.436Z,25.80
2017-09-16T19:59:10.227Z,29.55
2017-09-16T20:01:38.836Z,30.35
2017-09-16T20:04:06.618Z,29.92
2017-09-16T20:06:35.427Z,29.50
2017-09-16T20:09:03.240Z,31.65
2017-09-16T20:11:31.028Z,31.30
2017-09-16T20:13:59.156Z,29.40
2017-09-16T20:16:27.608Z,30.95
2017-09-16T20:18:56.815Z,29.12
2017-09-16T20:21:24.669Z,29.20
2017-09-16T20:23:52.501Z,31.27
2017-09-16T20:26:20.418Z,30.30
2017-09-16T20:28:48.260Z,29.35
2017-09-16T20:31:16.153Z,28.45
2017-09-16T20:33:43.990Z,28.85
2017-09-16T20:36:12.711Z,25.80
2017-09-16T20:38:40.569Z,28.27
2017-09-16T20:41:08.569Z,24.23
2017-09-16T20:43:37.332Z,24.95
2017-09-16T20:46:05.348Z,25.08
2017-09-16T20:48:33.174Z,29.52
2017-09-16T20:51:01.069Z,26.60
2017-09-16T20:53:28.984Z,26.92
2017-09-16T20:55:56.762Z,28.60
2017-09-16T20:58:24.790Z,30.70
2017-09-16T21:00:53.330Z,27.45
2017-09-16T21:03:21.209Z,28.42
2017-09-16T21:05:49.148Z,26.62
2017-09-16T21:08:16.948Z,32.70
2017-09-16T21:10:44.751Z,29.27
2017-09-16T21:13:12.532Z,27.40
2017-09-16T21:15:40.423Z,32.97
2017-09-16T21:18:08.216Z,31.20
2017-09-16T21:20:35.992Z,31.65
2017-09-16T21:23:04.647Z,32.00
2017-09-16T21:25:32.433Z,32.80
2017-09-16T21:28:01.099Z,31.85
2017-09-16T21:30:28.951Z,33.58
2017-09-16T21:32:56.766Z,32.00
2017-09-16T21:35:24.754Z,30.95
2017-09-16T21:37:53.346Z,33.85
2017-09-16T21:40:21.182Z,30.00
2017-09-16T21:42:48.957Z,32.72
2017-09-16T21:45:16.730Z,35.42
2017-09-16T21:47:44.533Z,33.83
2017-09-16T21:50:13.069Z,30.35
2017-09-16T21:52:40.894Z,28.67
2017-09-16T21:55:08.680Z,29.55
2017-09-16T21:57:36.460Z,32.17
2017-09-16T22:00:04.335Z,28.65
2017-09-16T22:02:32.145Z,31.08
2017-09-16T22:04:59.993Z,27.55
2017-09-16T22:07:28.530Z,27.87
2017-09-16T22:09:56.311Z,27.73
2017-09-16T22:12:24.160Z,28.12
2017-09-16T22:14:51.933Z,27.15
2017-09-16T22:17:19.762Z,30.88
2017-09-16T22:19:47.601Z,26.90
2017-09-16T22:22:15.386Z,29.00
2017-09-16T22:24:43.225Z,33.13
2017-09-16T22:27:11.017Z,31.17
2017-09-16T22:29:38.870Z,31.37
2017-09-16T22:32:06.663Z,34.42
2017-09-16T22:34:34.453Z,33.50
2017-09-16T22:37:03.348Z,32.38
2017-09-16T22:39:31.905Z,28.55
2017-09-16T22:41:59.769Z,28.38
2017-09-16T22:44:28.320Z,27.02
2017-09-16T22:46:56.087Z,34.90
2017-09-16T22:49:23.889Z,27.55
2017-09-16T22:51:51.653Z,30.25
2017-09-16T22:54:20.249Z,27.60
2017-09-16T22:56:48.016Z,26.75
2017-09-16T22:59:15.788Z,28.90
2017-09-16T23:01:43.587Z,28.77
2017-09-16T23:04:11.358Z,30.30
2017-09-16T23:06:39.172Z,31.98
2017-09-16T23:09:06.940Z,30.25
2017-09-16T23:11:34.700Z,27.37
2017-09-16T23:14:02.495Z,32.00
2017-09-16T23:16:30.253Z,30.75
2017-09-16T23:18:58.082Z,32.97
2017-09-16T23:21:25.847Z,30.85
2017-09-16T23:23:53.610Z,32.65
2017-09-16T23:26:21.412Z,35.00
2017-09-16T23:28:49.181Z,41.17
2017-09-16T23:31:17.007Z,37.97
2017-09-16T23:33:44.774Z,37.58
2017-09-16T23:36:12.546Z,42.72
2017-09-16T23:38:40.342Z,39.13
2017-09-16T23:41:08.120Z,41.08
2017-09-16T23:43:37.097Z,43.83
2017-09-16T23:46:05.632Z,44.38
2017-09-16T23:48:33.387Z,47.08
2017-09-16T23:51:01.178Z,47.80
2017-09-16T23:53:28.945Z,44.70
2017-09-16T23:55:56.777Z,49.20
2017-09-16T23:58:24.551Z,46.42
